Time;durP1;ratioP1;P1;durP2;ratioP2;P2;SDS_P1;SDS_P2;PMS_P1;PMS_P2;Temp;Humidity;BMP_temperature;BMP_pressure;BME280_temperature;BME280_humidity;BME280_pressure;Samples;Min_cycle;Max_cycle;Signal;HPM_P1;HPM_P2
2022/08/15 00:16:57;;;;;;;10.57;9.05;;;;;;;20.10;100.00;99583.47;4688471;30;20060;-82
2022/08/15 00:19:58;;;;;;;11.25;8.80;;;;;;;20.42;100.00;99621.72;4742633;29;20047;-80
2022/08/15 00:45:06;;;;;;;;;;;;;;;;;;;;;
2022/08/15 01:27:50;;;;;;;19.42;11.20;;;;;;;20.61;100.00;99685.59;4598161;30;20078;-82
2022/08/15 01:31:09;;;;;;;17.08;11.63;;;;;;;20.28;99.34;99663.38;4648804;30;20060;-81
2022/08/15 01:41:17;;;;;;;14.27;10.93;;;;;;;20.52;100.00;99695.88;4758447;29;20106;-82
2022/08/15 03:17:40;;;;;;;;;;;;;;;;;;;;;
2022/08/15 03:24:56;;;;;;;14.82;12.25;;;;;;;20.62;100.00;99691.78;4675974;30;20046;-80
2022/08/15 03:28:04;;;;;;;12.00;10.65;;;;;;;20.79;100.00;99710.44;4666989;30;20066;-80
2022/08/15 04:28:29;;;;;;;;;;;;;;;;;;;;;
2022/08/15 04:31:51;;;;;;;;;;;;;;;;;;;;;
2022/08/15 04:38:40;;;;;;;15.73;10.30;;;;;;;20.59;100.00;99692.81;4622306;30;20055;-80
2022/08/15 04:42:00;;;;;;;12.27;10.73;;;;;;;20.00;100.00;99614.19;4651119;30;20136;-81
2022/08/15 04:52:14;;;;;;;;;;;;;;;;;;;;;
2022/08/15 05:06:16;;;;;;;;;;;;;;;;;;;;;
2022/08/15 05:10:06;;;;;;;;;;;;;;;;;;;;;
2022/08/15 05:13:06;;;;;;;;;;;;;;;;;;;;;
2022/08/15 05:24:23;;;;;;;;;;;;;;;;;;;;;
2022/08/15 05:27:18;;;;;;;;;;;;;;;;;;;;;
2022/08/15 06:19:08;;;;;;;12.37;8.17;;;;;;;21.00;100.00;99755.53;3951738;27;30890087;-80
2022/08/15 06:22:43;;;;;;;;;;;;;;;;;;;;;
2022/08/15 06:26:17;;;;;;;;;;;;;;;;;;;;;
2022/08/15 06:29:36;;;;;;;16.80;12.38;;;;;;;20.36;100.00;99664.69;5025943;28;20883;-82
2022/08/15 06:33:12;;;;;;;;;;;;;;;;;;;;;
2022/08/15 06:43:04;;;;;;;15.68;13.13;;;;;;;20.93;100.00;99747.03;4922053;28;20062;-82
2022/08/15 06:46:22;;;;;;;14.90;12.75;;;;;;;20.94;100.00;99756.75;4922043;28;20592;-80
2022/08/15 06:49:42;;;;;;;;;;;;;;;;;;;;;
2022/08/15 07:21:27;;;;;;;;;;;;;;;;;;;;;
2022/08/15 07:32:04;;;;;;;18.38;14.65;;;;;;;21.53;100.00;99732.25;4829019;29;20138;-82
2022/08/15 07:52:17;;;;;;;20.23;12.05;;;;;;;21.52;98.09;99635.28;4810305;29;20159;-81
2022/08/15 07:58:22;;;;;;;10.10;5.97;;;;;;;23.86;80.09;99749.31;4821353;29;20262;-70
2022/08/15 08:01:05;;;;;;;7.30;5.88;;;;;;;24.58;76.40;99749.88;4953948;28;20044;-70
2022/08/15 08:03:35;;;;;;;8.82;6.28;;;;;;;24.95;73.11;99664.97;5019655;28;20045;-70
2022/08/15 08:06:27;;;;;;;8.85;6.68;;;;;;;24.86;73.01;99665.63;5019282;28;20072;-70
2022/08/15 08:09:08;;;;;;;9.50;6.88;;;;;;;24.74;74.06;99678.09;5020907;28;20073;-72
2022/08/15 08:11:39;;;;;;;8.93;7.47;;;;;;;25.27;74.49;99750.44;5019914;28;20037;-69
2022/08/15 08:14:15;;;;;;;17.87;8.77;;;;;;;25.20;74.08;99744.66;5007104;28;20045;-77
2022/08/15 08:16:52;;;;;;;10.15;7.93;;;;;;;25.14;74.97;99750.41;5015409;28;20045;-78
2022/08/15 08:19:58;;;;;;;15.95;7.13;;;;;;;25.15;75.15;99751.28;5013993;28;20173;-79
2022/08/15 08:23:01;;;;;;;9.27;7.63;;;;;;;25.00;75.76;99754.06;4987870;28;20045;-79
2022/08/15 08:25:36;;;;;;;11.07;7.72;;;;;;;24.74;75.36;99701.38;5000077;28;20048;-82
2022/08/15 08:28:22;;;;;;;19.00;7.60;;;;;;;24.74;74.68;99679.91;5020848;28;20073;-76
2022/08/15 08:31:02;;;;;;;11.60;7.15;;;;;;;25.06;78.07;99756.34;5019447;28;20061;-80
2022/08/15 08:33:38;;;;;;;19.83;7.30;;;;;;;25.08;76.24;99741.97;5020322;28;20124;-79
2022/08/15 08:36:20;;;;;;;27.05;7.18;;;;;;;25.15;75.95;99711.00;5019992;28;20192;-80
2022/08/15 08:38:58;;;;;;;12.80;6.10;;;;;;;24.78;78.37;99668.84;5022061;28;20504;-80
2022/08/15 08:41:40;;;;;;;11.07;6.53;;;;;;;25.27;77.25;99758.50;5022379;28;20326;-75
2022/08/15 08:44:36;;;;;;;14.20;6.50;;;;;;;25.58;74.50;99770.56;5018043;28;20050;-76
2022/08/15 08:47:29;;;;;;;10.13;6.90;;;;;;;25.51;74.75;99779.19;5017475;28;20045;-79
2022/08/15 08:50:15;;;;;;;10.57;6.75;;;;;;;24.44;76.96;99691.78;5017406;28;20057;-74
2022/08/15 08:52:54;;;;;;;10.23;5.85;;;;;;;25.51;73.88;99769.28;5009327;28;20064;-79
2022/08/15 08:55:28;;;;;;;15.05;6.57;;;;;;;25.63;73.90;99789.03;5018769;28;20050;-80
2022/08/15 08:58:03;;;;;;;9.93;7.22;;;;;;;25.10;75.39;99710.47;5018255;28;20353;-80
2022/08/15 09:00:40;;;;;;;11.02;7.00;;;;;;;25.46;73.98;99772.31;5016700;28;20575;-79
2022/08/15 09:03:20;;;;;;;9.55;7.95;;;;;;;24.44;75.96;99675.69;5012741;28;20132;-74
2022/08/15 09:05:55;;;;;;;11.55;8.05;;;;;;;25.69;74.23;99775.16;5007835;28;20045;-79
2022/08/15 09:08:38;;;;;;;13.70;9.35;;;;;;;25.31;75.11;99770.75;5018038;28;20039;-83
2022/08/15 09:11:19;;;;;;;12.38;9.65;;;;;;;25.31;75.58;99768.06;5013886;28;20057;-87
2022/08/15 09:13:46;;;;;;;12.05;9.82;;;;;;;25.21;77.14;99699.84;5020232;28;20606;-82
2022/08/15 09:16:43;;;;;;;12.60;9.40;;;;;;;25.45;73.56;99706.13;5017336;28;20050;-84
2022/08/15 09:19:23;;;;;;;12.68;9.95;;;;;;;25.43;75.48;99758.25;5004223;28;20118;-80
2022/08/15 09:21:50;;;;;;;15.00;12.02;;;;;;;25.37;76.66;99694.22;5009894;28;20041;-84
2022/08/15 09:24:19;;;;;;;11.57;10.18;;;;;;;25.49;74.42;99755.97;5007223;28;20052;-79
2022/08/15 09:26:49;;;;;;;15.98;13.38;;;;;;;25.82;76.52;99764.34;5011615;28;20060;-83
2022/08/15 09:29:29;;;;;;;20.00;11.93;;;;;;;25.77;75.04;99767.38;5012897;28;20535;-76
2022/08/15 09:32:31;;;;;;;14.60;10.65;;;;;;;25.19;77.34;99691.91;5012151;28;20054;-77
2022/08/15 09:35:38;;;;;;;16.63;12.75;;;;;;;24.77;80.69;99671.63;5018597;28;20037;-78
2022/08/15 09:38:09;;;;;;;23.33;14.27;;;;;;;25.57;80.36;99762.63;4999269;28;20109;-75
2022/08/15 09:41:20;;;;;;;19.15;12.75;;;;;;;26.25;79.74;99771.94;5003323;28;20049;-81
2022/08/15 09:44:04;;;;;;;15.95;12.35;;;;;;;25.82;79.47;99770.56;5001142;28;20041;-79
2022/08/15 09:46:55;;;;;;;16.98;13.15;;;;;;;25.81;77.16;99768.88;5024331;28;20044;-80
2022/08/15 09:49:45;;;;;;;15.95;14.20;;;;;;;25.57;78.73;99714.25;5026523;28;20037;-78
2022/08/15 09:52:30;;;;;;;18.92;14.50;;;;;;;25.31;77.28;99676.75;5023534;28;20045;-77
2022/08/15 09:55:32;;;;;;;15.57;13.93;;;;;;;25.92;76.73;99745.75;5022869;28;20045;-77
2022/08/15 09:58:21;;;;;;;18.15;14.68;;;;;;;26.02;76.62;99763.78;4997048;28;20139;-76
2022/08/15 10:01:15;;;;;;;16.73;13.77;;;;;;;25.78;79.32;99771.81;5024807;28;20897;-76
2022/08/15 10:04:13;;;;;;;11.77;9.57;;;;;;;24.84;73.49;99668.44;5019701;28;20093;-75
2022/08/15 10:06:57;;;;;;;12.07;10.73;;;;;;;24.93;75.44;99663.34;5019361;28;20053;-75
2022/08/15 10:09:32;;;;;;;16.98;12.25;;;;;;;25.75;74.95;99663.66;5020948;28;20041;-76
2022/08/15 10:12:09;;;;;;;13.38;11.23;;;;;;;25.86;72.46;99652.94;5012625;28;20080;-76
2022/08/15 10:14:55;;;;;;;17.30;13.80;;;;;;;25.91;75.33;99656.16;5021787;28;20037;-78
2022/08/15 10:17:37;;;;;;;17.00;11.88;;;;;;;26.86;72.76;99766.41;5019920;28;21012;-76
2022/08/15 10:20:16;;;;;;;14.68;13.05;;;;;;;26.46;70.80;99668.06;5014299;28;20063;-77
2022/08/15 10:22:58;;;;;;;14.55;12.00;;;;;;;26.52;67.11;99674.78;5031057;28;20064;-78
2022/08/15 10:25:40;;;;;;;10.55;9.05;;;;;;;26.91;68.42;99659.19;5004933;28;20120;-75
2022/08/15 10:28:11;;;;;;;13.07;9.73;;;;;;;26.77;68.12;99654.06;4996051;28;20029;-76
2022/08/15 10:31:11;;;;;;;20.67;9.70;;;;;;;27.14;67.07;99660.88;5008897;28;20033;-76
2022/08/15 10:33:48;;;;;;;11.82;9.95;;;;;;;27.87;69.64;99747.53;4985600;28;20046;-75
2022/08/15 10:36:13;;;;;;;15.07;10.07;;;;;;;27.55;69.82;99648.56;4996842;28;20098;-79
2022/08/15 10:38:45;;;;;;;12.07;8.85;;;;;;;27.52;67.16;99658.75;4984849;28;20046;-76
2022/08/15 10:41:30;;;;;;;10.02;8.20;;;;;;;27.83;64.57;99654.38;4982243;28;20046;-77
2022/08/15 10:44:52;;;;;;;10.88;8.70;;;;;;;27.94;64.33;99646.25;4994622;28;20056;-76
2022/08/15 10:47:32;;;;;;;10.95;8.93;;;;;;;28.52;65.04;99745.69;4942385;28;20050;-80
2022/08/15 10:50:19;;;;;;;11.48;9.38;;;;;;;28.23;65.75;99648.28;4956675;28;20042;-79
2022/08/15 10:53:07;;;;;;;10.80;8.43;;;;;;;27.62;59.98;99645.38;5001982;28;20060;-76
2022/08/15 10:55:39;;;;;;;8.77;6.50;;;;;;;28.64;63.49;99735.66;5006854;28;20053;-76
2022/08/15 10:58:09;;;;;;;11.23;6.72;;;;;;;28.83;59.86;99743.03;5006414;28;20040;-77
2022/08/15 11:00:41;;;;;;;9.02;6.15;;;;;;;28.72;56.59;99727.75;5004577;28;20124;-77
2022/08/15 11:03:20;;;;;;;9.55;7.60;;;;;;;27.46;59.46;99610.75;5005106;28;20137;-77
2022/08/15 11:06:14;;;;;;;11.95;6.55;;;;;;;29.02;58.86;99753.06;4989455;28;20045;-78
2022/08/15 11:08:53;;;;;;;8.57;5.93;;;;;;;27.88;55.72;99645.91;4987998;28;20053;-78
2022/08/15 11:11:23;;;;;;;9.32;6.50;;;;;;;27.92;59.05;99631.19;4988853;28;20042;-82
2022/08/15 11:14:08;;;;;;;9.18;6.63;;;;;;;28.96;57.98;99721.19;5001111;28;20045;-79
2022/08/15 11:16:41;;;;;;;11.52;7.03;;;;;;;29.04;57.62;99738.44;5005764;28;20041;-79
2022/08/15 11:19:36;;;;;;;9.55;7.90;;;;;;;28.59;56.52;99717.16;4972491;28;20029;-78
2022/08/15 11:22:05;;;;;;;7.72;6.88;;;;;;;28.55;54.61;99693.25;5003793;28;20038;-81
2022/08/15 11:24:37;;;;;;;7.28;6.05;;;;;;;28.75;53.55;99705.00;5002230;28;20128;-77
2022/08/15 11:27:14;;;;;;;7.22;5.25;;;;;;;29.00;55.99;99703.72;5021530;28;20216;-79
2022/08/15 11:29:42;;;;;;;7.07;6.13;;;;;;;28.50;56.50;99636.97;5020969;28;20471;-79
2022/08/15 11:32:13;;;;;;;8.38;6.75;;;;;;;28.69;56.15;99621.88;5024516;28;20061;-76
2022/08/15 11:34:46;;;;;;;10.77;7.90;;;;;;;28.62;53.35;99608.91;5024724;28;20042;-76
2022/08/15 11:37:22;;;;;;;10.85;6.15;;;;;;;28.07;54.60;99610.13;5006728;28;20050;-75
2022/08/15 11:40:01;;;;;;;6.43;4.53;;;;;;;28.45;56.19;99668.88;5008633;28;20030;-77
2022/08/15 11:42:32;;;;;;;10.38;6.15;;;;;;;28.09;54.12;99672.88;5024142;28;20073;-77
2022/08/15 11:45:08;;;;;;;8.88;5.90;;;;;;;28.54;58.55;99691.53;5023947;28;20042;-78
2022/08/15 11:47:36;;;;;;;7.22;5.43;;;;;;;28.42;54.24;99651.13;5004284;28;20045;-76
2022/08/15 11:50:14;;;;;;;10.18;7.07;;;;;;;28.72;52.26;99681.84;5006615;28;20103;-75
2022/08/15 11:52:50;;;;;;;7.93;5.68;;;;;;;28.29;54.13;99619.94;5024346;28;20512;-75
2022/08/15 11:55:32;;;;;;;9.48;6.97;;;;;;;28.16;55.49;99601.22;5022954;28;20046;-76
2022/08/15 11:58:44;;;;;;;9.30;7.03;;;;;;;28.33;56.17;99660.00;5021237;28;20033;-75
2022/08/15 12:01:31;;;;;;;9.40;7.15;;;;;;;28.39;56.53;99651.38;5035444;28;20034;-77
2022/08/15 12:04:05;;;;;;;12.20;6.53;;;;;;;28.58;55.20;99664.13;5012476;28;20049;-77
2022/08/15 12:06:35;;;;;;;10.52;7.40;;;;;;;28.16;55.26;99658.72;5040057;28;20832;-76
2022/08/15 12:09:19;;;;;;;11.15;6.70;;;;;;;28.42;56.17;99663.72;5004489;28;20115;-81
2022/08/15 12:11:48;;;;;;;7.85;6.10;;;;;;;28.50;55.42;99661.28;5001589;28;20064;-76
2022/08/15 12:14:31;;;;;;;9.88;5.85;;;;;;;28.28;53.19;99639.78;5010429;28;20061;-80
2022/08/15 12:17:05;;;;;;;7.47;6.28;;;;;;;27.53;54.62;99567.00;5021866;28;20049;-76
2022/08/15 12:19:37;;;;;;;9.20;5.78;;;;;;;28.47;53.83;99648.06;5008610;28;20060;-77
2022/08/15 12:22:13;;;;;;;7.22;5.78;;;;;;;27.84;53.89;99561.72;5006735;28;20041;-76
2022/08/15 12:24:41;;;;;;;8.68;6.70;;;;;;;28.60;52.71;99626.22;5027359;28;20073;-76
2022/08/15 12:27:10;;;;;;;8.35;6.85;;;;;;;27.43;52.62;99452.03;4980233;28;20474;-76
2022/08/15 12:29:39;;;;;;;10.23;6.32;;;;;;;28.69;52.91;99652.41;4984468;28;20050;-77
2022/08/15 12:32:08;;;;;;;8.18;5.47;;;;;;;28.52;51.59;99629.59;5003383;28;20038;-79
2022/08/15 12:34:53;;;;;;;13.18;6.75;;;;;;;27.82;52.21;99536.69;5003896;28;20050;-78
2022/08/15 12:37:25;;;;;;;7.93;6.63;;;;;;;28.54;54.51;99624.94;5003744;28;20687;-75
2022/08/15 12:39:55;;;;;;;;;;;;;;;28.65;55.19;99632.06;4973373;28;20128;-76
2022/08/15 12:42:33;;;;;;;21.95;7.53;;;;;;;28.53;52.31;99622.34;5002727;28;19922;-75
2022/08/15 12:45:26;;;;;;;12.07;7.18;;;;;;;28.24;52.97;99535.81;4984028;28;20050;-75
2022/08/15 12:47:54;;;;;;;8.57;6.95;;;;;;;28.15;53.87;99529.41;4984942;28;20056;-76
2022/08/15 12:50:21;;;;;;;9.82;7.75;;;;;;;28.33;55.14;99540.41;4994904;28;20050;-79
2022/08/15 12:52:48;;;;;;;16.25;9.73;;;;;;;28.51;53.57;99584.69;4988004;28;20050;-80
2022/08/15 12:55:14;;;;;;;13.30;6.50;;;;;;;28.08;52.60;99507.50;4992619;28;20053;-80
2022/08/15 12:57:39;;;;;;;9.13;6.72;;;;;;;28.29;52.97;99518.25;4988824;28;20047;-75
2022/08/15 13:00:09;;;;;;;9.02;6.57;;;;;;;28.25;51.13;99522.19;4978433;28;20164;-76
2022/08/15 13:02:40;;;;;;;9.40;7.57;;;;;;;28.42;53.40;99567.44;5003195;28;20046;-76
2022/08/15 13:05:20;;;;;;;8.27;6.00;;;;;;;28.31;51.74;99575.63;4980880;28;20186;-77
2022/08/15 13:07:45;;;;;;;8.40;6.35;;;;;;;28.09;50.19;99522.69;4985004;28;20045;-76
2022/08/15 13:10:17;;;;;;;9.65;6.07;;;;;;;28.17;50.29;99506.69;5014679;28;20046;-80
2022/08/15 13:12:43;;;;;;;7.22;5.53;;;;;;;28.05;48.54;99520.38;4987001;28;20070;-77
2022/08/15 13:15:09;;;;;;;12.73;5.88;;;;;;;28.14;48.95;99524.97;4982334;28;20080;-75
2022/08/15 13:17:40;;;;;;;9.57;5.32;;;;;;;28.06;50.11;99504.06;4988412;28;20200;-75
2022/08/15 13:25:41;;;;;;;7.63;5.68;;;;;;;28.42;51.13;99632.22;5003748;28;20068;-78
2022/08/15 13:28:09;;;;;;;9.25;7.05;;;;;;;28.46;51.87;99623.84;4983722;28;20049;-75
2022/08/15 13:30:36;;;;;;;7.75;6.95;;;;;;;28.39;49.74;99593.84;4979936;28;22255;-77
2022/08/15 13:33:04;;;;;;;9.27;6.53;;;;;;;28.02;50.87;99539.53;4996929;28;20046;-78
2022/08/15 13:35:31;;;;;;;9.88;6.35;;;;;;;28.05;52.01;99525.78;4978445;28;20485;-79
2022/08/15 13:37:59;;;;;;;10.85;8.40;;;;;;;28.48;50.44;99586.81;4998752;28;20069;-78
2022/08/15 13:40:25;;;;;;;9.20;6.43;;;;;;;27.90;49.88;99520.72;4985555;28;20045;-75
2022/08/15 13:42:51;;;;;;;7.75;6.70;;;;;;;28.36;55.10;99613.00;4995024;28;20033;-76
2022/08/15 13:45:18;;;;;;;8.80;7.82;;;;;;;27.50;58.95;99575.31;5002907;28;20089;-84
2022/08/15 13:47:46;;;;;;;10.85;6.95;;;;;;;27.49;56.85;99532.34;4989742;28;20055;-83
2022/08/15 13:50:14;;;;;;;12.45;7.95;;;;;;;27.32;57.43;99523.84;5000665;28;20026;-86
2022/08/15 13:52:39;;;;;;;9.85;7.95;;;;;;;28.04;54.60;99626.56;5015507;28;20057;-86
2022/08/15 13:55:06;;;;;;;10.23;8.30;;;;;;;27.16;57.34;99502.69;4997494;28;20034;-84
2022/08/15 13:57:33;;;;;;;8.18;6.45;;;;;;;27.52;52.54;99503.28;4998689;28;20115;-86
2022/08/15 13:59:59;;;;;;;9.88;7.68;;;;;;;27.75;57.29;99601.06;5001043;28;20081;-75
2022/08/15 14:02:27;;;;;;;10.73;7.15;;;;;;;27.23;56.50;99502.19;4983851;28;21660;-78
2022/08/15 14:04:54;;;;;;;8.48;6.57;;;;;;;28.15;51.58;99604.94;4974104;28;20056;-76
2022/08/15 14:07:23;;;;;;;10.57;7.55;;;;;;;27.37;51.85;99520.78;5001264;28;20037;-87
2022/08/15 14:09:50;;;;;;;14.05;7.32;;;;;;;27.38;55.11;99513.53;5004951;28;20132;-82
2022/08/15 14:12:15;;;;;;;9.27;7.30;;;;;;;28.05;51.95;99577.91;4986984;28;20125;-83
2022/08/15 14:14:41;;;;;;;11.10;6.45;;;;;;;27.28;55.85;99517.00;4988964;28;20058;-83
2022/08/15 14:17:10;;;;;;;10.35;7.10;;;;;;;27.71;48.46;99523.28;4988398;28;20509;-76
2022/08/15 14:19:38;;;;;;;9.77;7.30;;;;;;;27.80;51.75;99530.59;4997584;28;20042;-85
2022/08/15 14:22:06;;;;;;;9.50;7.25;;;;;;;27.95;53.03;99609.31;4980751;28;20033;-81
2022/08/15 14:24:34;;;;;;;9.25;7.20;;;;;;;27.88;48.58;99529.94;5007962;28;20122;-75
2022/08/15 14:27:02;;;;;;;8.73;7.05;;;;;;;28.00;48.50;99528.88;4982286;28;20045;-78
2022/08/15 14:29:34;;;;;;;8.85;6.90;;;;;;;28.11;47.83;99523.41;5004909;28;20497;-75
2022/08/15 14:32:01;;;;;;;9.13;6.78;;;;;;;28.42;47.93;99534.19;5017240;28;20056;-77
2022/08/15 14:34:27;;;;;;;9.25;7.35;;;;;;;28.74;47.04;99606.94;5007799;28;20046;-74
2022/08/15 14:36:55;;;;;;;8.00;6.13;;;;;;;28.42;46.67;99532.38;5040965;28;20033;-76
2022/08/15 14:39:22;;;;;;;9.48;5.90;;;;;;;29.05;47.15;99639.31;5006275;28;20034;-79
2022/08/15 14:41:48;;;;;;;9.07;6.75;;;;;;;28.92;48.65;99630.63;5008588;28;20119;-75
2022/08/15 14:44:17;;;;;;;8.55;6.88;;;;;;;28.33;48.06;99533.19;5026905;28;20129;-77
2022/08/15 14:46:46;;;;;;;8.80;7.13;;;;;;;28.87;48.93;99617.53;5029401;28;20045;-76
2022/08/15 14:49:16;;;;;;;8.88;7.07;;;;;;;28.17;51.54;99509.38;5008074;28;21691;-76
2022/08/15 14:51:45;;;;;;;8.65;6.80;;;;;;;28.33;48.28;99541.28;5028804;28;20041;-76
2022/08/15 14:54:18;;;;;;;;;;;;;;;28.76;49.45;99618.47;5029093;28;20064;-75
2022/08/15 14:56:45;;;;;;;15.43;8.35;;;;;;;28.07;49.58;99519.25;5028562;28;19925;-78
2022/08/15 14:59:14;;;;;;;9.73;7.07;;;;;;;28.74;48.65;99625.00;5027832;28;20065;-76
2022/08/15 15:01:42;;;;;;;9.02;7.25;;;;;;;27.98;49.73;99523.63;4996498;28;20071;-77
2022/08/15 15:04:13;;;;;;;11.63;7.25;;;;;;;28.67;50.02;99616.59;5027682;28;20057;-75
2022/08/15 15:06:43;;;;;;;9.38;7.50;;;;;;;28.21;48.99;99520.75;5026478;28;20045;-75
2022/08/15 15:09:10;;;;;;;9.75;7.18;;;;;;;28.08;48.67;99526.38;5026803;28;20099;-77
2022/08/15 15:11:37;;;;;;;13.73;9.18;;;;;;;28.15;49.73;99564.47;5008295;28;20046;-74
2022/08/15 15:14:03;;;;;;;9.60;7.30;;;;;;;27.97;48.78;99539.94;5007225;28;20060;-75
2022/08/15 15:16:29;;;;;;;9.40;7.00;;;;;;;28.38;49.86;99622.69;5008183;28;20060;-75
2022/08/15 15:18:57;;;;;;;9.38;7.35;;;;;;;28.24;48.77;99590.66;5028571;28;20037;-74
2022/08/15 15:21:23;;;;;;;8.82;7.43;;;;;;;28.06;48.44;99536.44;5026506;28;20037;-75
2022/08/15 15:23:51;;;;;;;9.60;8.55;;;;;;;28.29;51.27;99634.28;5024927;28;20085;-75
2022/08/15 15:26:18;;;;;;;10.60;7.70;;;;;;;27.74;50.86;99533.78;4998693;28;20180;-76
2022/08/15 15:28:48;;;;;;;8.52;6.90;;;;;;;27.67;49.26;99527.22;4999336;28;20073;-77
2022/08/15 15:31:19;;;;;;;10.40;8.35;;;;;;;27.77;49.30;99534.41;4986174;28;20073;-76
2022/08/15 15:33:45;;;;;;;13.20;7.70;;;;;;;28.15;49.42;99586.91;4988822;28;20209;-75
2022/08/15 15:36:36;;;;;;;12.38;8.02;;;;;;;27.92;50.90;99599.66;5005502;28;20049;-75
2022/08/15 15:39:09;;;;;;;9.25;8.15;;;;;;;27.59;50.80;99530.56;4987574;28;20049;-76
2022/08/15 15:41:39;;;;;;;10.15;7.57;;;;;;;27.57;51.75;99546.03;4987303;28;20580;-75
2022/08/15 15:44:06;;;;;;;9.32;7.55;;;;;;;26.90;50.66;99421.41;5003093;28;20138;-75
2022/08/15 15:46:37;;;;;;;7.95;6.85;;;;;;;27.68;49.42;99539.72;4985295;28;20584;-75
2022/08/15 15:49:14;;;;;;;8.13;6.20;;;;;;;28.19;49.96;99641.47;5003852;28;20057;-75
2022/08/15 15:51:40;;;;;;;12.70;7.88;;;;;;;28.15;50.04;99646.25;4987619;28;20371;-76
2022/08/15 15:54:09;;;;;;;9.13;7.30;;;;;;;28.13;49.89;99656.31;5000261;28;20054;-76
2022/08/15 15:56:36;;;;;;;11.23;7.78;;;;;;;27.73;49.88;99599.50;5002608;28;20632;-77
2022/08/15 15:59:03;;;;;;;9.70;7.63;;;;;;;28.25;49.55;99667.91;5003630;28;20059;-74
2022/08/15 16:01:31;;;;;;;11.63;10.40;;;;;;;27.91;49.76;99638.41;5000550;28;20042;-77
2022/08/15 16:04:00;;;;;;;42.80;38.13;;;;;;;27.47;51.16;99570.19;5001930;28;20090;-78
2022/08/15 16:06:27;;;;;;;40.55;36.28;;;;;;;27.92;51.80;99666.22;5005163;28;20143;-77
2022/08/15 16:08:53;;;;;;;14.95;9.93;;;;;;;27.92;52.17;99675.16;4985255;28;20100;-76
2022/08/15 16:11:40;;;;;;;10.82;9.30;;;;;;;27.79;52.11;99674.44;4969247;28;20050;-76
2022/08/15 16:14:29;;;;;;;10.07;8.10;;;;;;;27.40;51.90;99581.63;4983914;28;20045;-76
2022/08/15 16:16:55;;;;;;;10.20;7.18;;;;;;;27.97;52.12;99682.88;4995977;28;20054;-75
2022/08/15 16:19:42;;;;;;;10.27;8.30;;;;;;;27.84;51.88;99687.56;5000812;28;20054;-75
2022/08/15 16:22:34;;;;;;;7.95;6.57;;;;;;;27.41;51.66;99697.34;5001619;28;20141;-76
2022/08/15 16:25:10;;;;;;;7.78;6.22;;;;;;;26.80;50.84;99657.34;5010401;28;20042;-75
2022/08/15 16:27:42;;;;;;;10.38;6.13;;;;;;;26.11;52.36;99607.09;5016198;28;20032;-74
2022/08/15 16:30:11;;;;;;;10.13;7.05;;;;;;;26.12;55.94;99651.00;5022730;28;20126;-75
2022/08/15 16:32:50;;;;;;;7.53;5.20;;;;;;;25.51;56.45;99618.84;5006008;28;20061;-77
2022/08/15 16:35:27;;;;;;;7.22;5.32;;;;;;;25.56;55.87;99645.38;5003843;28;20073;-76
2022/08/15 16:37:58;;;;;;;7.93;5.30;;;;;;;25.72;61.16;99720.31;5009728;28;20065;-75
2022/08/15 16:40:31;;;;;;;7.63;4.88;;;;;;;25.61;62.99;99739.91;5013993;28;20060;-72
2022/08/15 16:43:06;;;;;;;12.95;5.20;;;;;;;25.35;63.36;99734.63;5019218;28;20046;-74
2022/08/15 16:45:43;;;;;;;6.85;4.80;;;;;;;25.15;64.74;99740.56;5011024;28;20056;-73
2022/08/15 16:48:41;;;;;;;6.57;4.05;;;;;;;25.01;65.17;99741.53;4998108;28;20049;-73
2022/08/15 16:51:14;;;;;;;14.52;4.53;;;;;;;24.85;65.32;99736.38;4997347;28;20060;-75
2022/08/15 16:54:05;;;;;;;7.20;4.53;;;;;;;24.16;65.79;99644.56;5013454;28;22585;-73
2022/08/15 16:56:44;;;;;;;8.73;4.78;;;;;;;24.17;65.83;99668.59;5015762;28;21416;-74
2022/08/15 16:59:31;;;;;;;7.63;4.82;;;;;;;24.68;66.47;99742.03;5019474;28;20041;-72
2022/08/15 17:02:23;;;;;;;8.50;5.00;;;;;;;23.90;67.64;99624.91;5013156;28;20064;-74
2022/08/15 17:05:30;;;;;;;5.70;3.90;;;;;;;23.77;68.24;99623.06;5001174;28;20061;-74
2022/08/15 17:08:20;;;;;;;8.63;4.97;;;;;;;24.24;69.19;99709.25;4991116;28;20060;-75
2022/08/15 17:11:12;;;;;;;11.15;4.72;;;;;;;24.30;70.16;99716.00;4986198;28;20045;-77
2022/08/15 17:13:53;;;;;;;8.73;5.22;;;;;;;23.69;70.25;99592.34;4975282;28;20103;-73
2022/08/15 17:16:43;;;;;;;8.32;4.68;;;;;;;24.33;70.12;99713.13;4994199;28;20077;-73
2022/08/15 17:19:17;;;;;;;13.43;5.93;;;;;;;23.71;70.85;99615.41;5019010;28;20025;-77
2022/08/15 17:22:01;;;;;;;8.55;4.65;;;;;;;23.46;71.77;99618.88;4997172;28;20041;-74
2022/08/15 17:24:41;;;;;;;12.50;6.75;;;;;;;23.61;71.40;99627.69;5004447;28;20058;-73
2022/08/15 17:27:19;;;;;;;6.93;5.13;;;;;;;23.99;72.72;99710.91;4998466;28;20112;-77
2022/08/15 17:30:06;;;;;;;8.23;4.60;;;;;;;24.06;72.51;99697.94;4999902;28;20054;-75
2022/08/15 17:32:47;;;;;;;7.95;5.18;;;;;;;24.30;71.85;99706.13;4995305;28;20371;-74
2022/08/15 17:35:14;;;;;;;9.38;5.05;;;;;;;24.06;73.02;99707.81;4992971;28;20053;-76
2022/08/15 17:37:42;;;;;;;9.38;4.75;;;;;;;24.05;73.65;99696.25;4995789;28;20075;-75
2022/08/15 17:40:16;;;;;;;11.93;4.97;;;;;;;24.23;72.78;99697.69;4999838;28;20037;-74
2022/08/15 17:42:43;;;;;;;8.95;4.60;;;;;;;23.94;74.23;99647.88;5000938;28;20469;-74
2022/08/15 17:45:17;;;;;;;8.57;4.63;;;;;;;24.10;72.82;99694.09;4979487;28;20046;-75
2022/08/15 17:47:51;;;;;;;7.55;5.35;;;;;;;23.19;73.62;99584.06;4999914;28;20112;-74
2022/08/15 17:50:25;;;;;;;11.13;5.80;;;;;;;22.78;75.36;99590.25;4997636;28;20061;-75
2022/08/15 17:52:59;;;;;;;10.05;6.18;;;;;;;23.01;76.19;99625.41;4997510;28;21178;-75
2022/08/15 17:55:33;;;;;;;10.90;5.93;;;;;;;22.97;75.87;99612.19;4980044;28;20049;-75
2022/08/15 17:58:40;;;;;;;8.70;6.03;;;;;;;23.05;74.83;99602.84;4995051;28;20036;-74
2022/08/15 18:01:07;;;;;;;8.57;5.82;;;;;;;23.00;76.26;99658.47;4960974;28;20072;-76
2022/08/15 18:03:34;;;;;;;9.95;6.35;;;;;;;22.88;75.29;99620.81;4980578;28;20515;-75
2022/08/15 18:05:59;;;;;;;9.38;6.07;;;;;;;23.25;75.91;99693.44;4994830;28;20058;-76
2022/08/15 18:08:32;;;;;;;9.23;5.63;;;;;;;22.65;76.32;99645.47;5000265;28;20041;-76
2022/08/15 18:10:59;;;;;;;9.35;5.20;;;;;;;23.06;76.78;99736.56;4998131;28;20110;-75
2022/08/15 18:13:27;;;;;;;14.80;5.63;;;;;;;22.22;77.81;99643.63;4998941;28;20053;-75
2022/08/15 18:16:10;;;;;;;7.53;4.63;;;;;;;22.43;77.54;99643.25;4996041;28;20026;-76
2022/08/15 18:18:58;;;;;;;7.25;4.78;;;;;;;23.18;76.88;99735.78;4999022;28;20112;-75
2022/08/15 18:21:48;;;;;;;6.68;5.07;;;;;;;22.43;76.57;99628.09;4977905;28;20106;-75
2022/08/15 18:24:34;;;;;;;9.88;6.28;;;;;;;22.18;76.71;99615.34;4992249;28;20073;-74
2022/08/15 18:27:23;;;;;;;8.90;5.43;;;;;;;22.90;77.40;99733.09;5014765;28;20519;-75
2022/08/15 18:30:31;;;;;;;7.60;4.95;;;;;;;22.05;77.62;99615.19;5027066;28;20045;-76
2022/08/15 18:33:22;;;;;;;13.10;7.15;;;;;;;23.05;76.64;99724.13;5005506;28;20215;-76
2022/08/15 18:36:04;;;;;;;9.43;5.50;;;;;;;23.06;77.27;99731.22;4984820;28;20489;-76
2022/08/15 18:38:32;;;;;;;13.38;6.90;;;;;;;22.53;77.56;99639.06;5001869;28;20081;-75
2022/08/15 18:41:06;;;;;;;8.45;5.05;;;;;;;22.84;77.98;99752.19;5018544;28;20045;-76
2022/08/15 18:43:46;;;;;;;9.80;5.35;;;;;;;23.09;77.56;99763.13;4982513;28;20510;-75
2022/08/15 18:46:16;;;;;;;10.77;6.53;;;;;;;23.07;77.91;99750.78;5001116;28;20057;-76
2022/08/15 18:49:01;;;;;;;9.10;6.20;;;;;;;22.62;78.00;99659.03;5022313;28;20045;-75
2022/08/15 18:51:52;;;;;;;11.77;7.55;;;;;;;22.96;77.67;99751.41;5001945;28;20046;-76
2022/08/15 18:54:21;;;;;;;8.77;6.53;;;;;;;22.56;77.75;99652.25;5016426;28;20095;-77
2022/08/15 18:56:52;;;;;;;12.80;6.60;;;;;;;22.32;78.19;99644.78;4994834;28;20084;-76
2022/08/15 18:59:32;;;;;;;10.48;7.13;;;;;;;22.55;79.74;99674.59;5016283;28;20099;-76
2022/08/15 19:02:18;;;;;;;12.05;6.57;;;;;;;23.01;79.80;99759.19;4995842;28;20045;-76
2022/08/15 19:04:49;;;;;;;8.55;6.38;;;;;;;23.06;79.11;99766.00;5031747;28;20110;-76
2022/08/15 19:07:24;;;;;;;11.77;6.78;;;;;;;22.38;79.71;99664.91;5019553;28;20041;-75
2022/08/15 19:09:59;;;;;;;12.15;6.35;;;;;;;22.46;81.45;99673.34;5015068;28;20662;-76
2022/08/15 19:12:52;;;;;;;12.20;6.95;;;;;;;22.96;81.02;99757.63;4998473;28;20072;-75
2022/08/15 19:15:25;;;;;;;8.82;5.72;;;;;;;22.81;81.31;99734.50;4978848;28;20043;-75